sensor_id;sensor_type;location;lat;lon;timestamp;P1;durP1;ratioP1;P2;durP2;ratioP2
31732;SDS011;18312;51.486;7.144;2022-11-13T00:00:02;12.45;;;5.60;;
31732;SDS011;18312;51.486;7.144;2022-11-13T00:02:32;9.07;;;6.13;;
31732;SDS011;18312;51.486;7.144;2022-11-13T00:04:59;10.55;;;5.80;;
31732;SDS011;18312;51.486;7.144;2022-11-13T00:07:26;10.95;;;6.18;;
31732;SDS011;18312;51.486;7.144;2022-11-13T00:09:53;13.43;;;6.45;;
31732;SDS011;18312;51.486;7.144;2022-11-13T00:12:19;16.55;;;7.93;;
31732;SDS011;18312;51.486;7.144;2022-11-13T00:14:46;14.60;;;6.35;;
31732;SDS011;18312;51.486;7.144;2022-11-13T00:17:13;14.00;;;6.47;;
31732;SDS011;18312;51.486;7.144;2022-11-13T00:19:42;12.20;;;6.32;;
31732;SDS011;18312;51.486;7.144;2022-11-13T00:22:08;12.13;;;6.67;;
31732;SDS011;18312;51.486;7.144;2022-11-13T00:24:35;14.93;;;6.88;;
31732;SDS011;18312;51.486;7.144;2022-11-13T00:27:02;11.50;;;7.15;;
31732;SDS011;18312;51.486;7.144;2022-11-13T00:29:29;14.57;;;7.30;;
31732;SDS011;18312;51.486;7.144;2022-11-13T00:31:55;18.58;;;7.45;;
31732;SDS011;18312;51.486;7.144;2022-11-13T00:34:22;14.40;;;7.38;;
31732;SDS011;18312;51.486;7.144;2022-11-13T00:36:50;14.90;;;6.68;;
31732;SDS011;18312;51.486;7.144;2022-11-13T00:39:17;11.70;;;5.50;;
31732;SDS011;18312;51.486;7.144;2022-11-13T00:41:44;13.27;;;5.82;;
31732;SDS011;18312;51.486;7.144;2022-11-13T00:44:10;8.85;;;5.10;;
31732;SDS011;18312;51.486;7.144;2022-11-13T00:46:37;12.32;;;5.50;;
31732;SDS011;18312;51.486;7.144;2022-11-13T00:49:04;11.55;;;5.60;;
31732;SDS011;18312;51.486;7.144;2022-11-13T00:51:31;13.30;;;5.55;;
31732;SDS011;18312;51.486;7.144;2022-11-13T00:53:59;10.18;;;5.50;;
31732;SDS011;18312;51.486;7.144;2022-11-13T00:56:26;14.38;;;5.30;;
31732;SDS011;18312;51.486;7.144;2022-11-13T00:58:52;12.13;;;5.55;;
31732;SDS011;18312;51.486;7.144;2022-11-13T01:01:19;15.85;;;5.85;;
31732;SDS011;18312;51.486;7.144;2022-11-13T01:03:46;12.82;;;6.35;;
31732;SDS011;18312;51.486;7.144;2022-11-13T01:06:14;10.30;;;5.55;;
31732;SDS011;18312;51.486;7.144;2022-11-13T01:08:44;9.32;;;5.15;;
31732;SDS011;18312;51.486;7.144;2022-11-13T01:11:13;11.90;;;6.50;;
31732;SDS011;18312;51.486;7.144;2022-11-13T01:13:42;14.85;;;6.78;;
31732;SDS011;18312;51.486;7.144;2022-11-13T01:16:11;13.60;;;6.70;;
31732;SDS011;18312;51.486;7.144;2022-11-13T01:18:39;15.80;;;7.78;;
31732;SDS011;18312;51.486;7.144;2022-11-13T01:21:07;15.48;;;7.32;;
31732;SDS011;18312;51.486;7.144;2022-11-13T01:23:35;18.05;;;9.10;;
31732;SDS011;18312;51.486;7.144;2022-11-13T01:26:03;19.50;;;9.65;;
31732;SDS011;18312;51.486;7.144;2022-11-13T01:28:33;20.30;;;9.88;;
31732;SDS011;18312;51.486;7.144;2022-11-13T01:31:00;19.58;;;9.10;;
31732;SDS011;18312;51.486;7.144;2022-11-13T01:33:30;23.45;;;10.15;;
31732;SDS011;18312;51.486;7.144;2022-11-13T01:36:00;18.48;;;8.70;;
31732;SDS011;18312;51.486;7.144;2022-11-13T01:38:27;19.33;;;8.80;;
31732;SDS011;18312;51.486;7.144;2022-11-13T01:40:54;17.00;;;9.07;;
31732;SDS011;18312;51.486;7.144;2022-11-13T01:43:24;14.82;;;9.10;;
31732;SDS011;18312;51.486;7.144;2022-11-13T01:46:08;23.75;;;9.80;;
31732;SDS011;18312;51.486;7.144;2022-11-13T01:48:41;14.70;;;8.55;;
31732;SDS011;18312;51.486;7.144;2022-11-13T01:51:10;23.67;;;10.25;;
31732;SDS011;18312;51.486;7.144;2022-11-13T01:53:39;19.52;;;9.43;;
31732;SDS011;18312;51.486;7.144;2022-11-13T01:56:10;18.63;;;9.48;;
31732;SDS011;18312;51.486;7.144;2022-11-13T01:58:39;21.60;;;9.48;;
31732;SDS011;18312;51.486;7.144;2022-11-13T02:01:08;17.67;;;9.52;;
31732;SDS011;18312;51.486;7.144;2022-11-13T02:03:35;22.00;;;9.30;;
31732;SDS011;18312;51.486;7.144;2022-11-13T02:06:02;23.30;;;10.88;;
31732;SDS011;18312;51.486;7.144;2022-11-13T02:08:29;14.68;;;8.88;;
31732;SDS011;18312;51.486;7.144;2022-11-13T02:10:56;20.35;;;9.32;;
31732;SDS011;18312;51.486;7.144;2022-11-13T02:13:23;16.60;;;9.27;;
31732;SDS011;18312;51.486;7.144;2022-11-13T02:15:50;19.50;;;9.55;;
31732;SDS011;18312;51.486;7.144;2022-11-13T02:18:19;17.33;;;9.50;;
31732;SDS011;18312;51.486;7.144;2022-11-13T02:20:50;12.38;;;7.90;;
31732;SDS011;18312;51.486;7.144;2022-11-13T02:23:27;17.60;;;9.05;;
31732;SDS011;18312;51.486;7.144;2022-11-13T02:26:03;19.25;;;9.18;;
31732;SDS011;18312;51.486;7.144;2022-11-13T02:31:04;18.48;;;8.38;;
31732;SDS011;18312;51.486;7.144;2022-11-13T02:33:32;26.02;;;7.50;;
31732;SDS011;18312;51.486;7.144;2022-11-13T02:36:00;14.30;;;8.55;;
31732;SDS011;18312;51.486;7.144;2022-11-13T02:38:27;14.68;;;7.97;;
31732;SDS011;18312;51.486;7.144;2022-11-13T02:40:54;14.95;;;7.40;;
31732;SDS011;18312;51.486;7.144;2022-11-13T02:43:22;18.73;;;8.57;;
31732;SDS011;18312;51.486;7.144;2022-11-13T02:45:49;13.88;;;7.60;;
31732;SDS011;18312;51.486;7.144;2022-11-13T02:48:16;12.98;;;7.07;;
31732;SDS011;18312;51.486;7.144;2022-11-13T02:50:43;15.05;;;7.65;;
31732;SDS011;18312;51.486;7.144;2022-11-13T02:53:10;13.77;;;7.90;;
31732;SDS011;18312;51.486;7.144;2022-11-13T02:55:36;15.40;;;7.05;;
31732;SDS011;18312;51.486;7.144;2022-11-13T02:58:03;18.45;;;8.52;;
31732;SDS011;18312;51.486;7.144;2022-11-13T03:00:31;16.63;;;7.40;;
31732;SDS011;18312;51.486;7.144;2022-11-13T03:02:58;20.75;;;8.52;;
31732;SDS011;18312;51.486;7.144;2022-11-13T03:05:25;15.32;;;7.53;;
31732;SDS011;18312;51.486;7.144;2022-11-13T03:07:51;15.18;;;8.68;;
31732;SDS011;18312;51.486;7.144;2022-11-13T03:10:18;13.95;;;7.55;;
31732;SDS011;18312;51.486;7.144;2022-11-13T03:12:45;13.18;;;7.57;;
31732;SDS011;18312;51.486;7.144;2022-11-13T03:15:12;12.10;;;7.07;;
31732;SDS011;18312;51.486;7.144;2022-11-13T03:17:40;14.93;;;7.47;;
31732;SDS011;18312;51.486;7.144;2022-11-13T03:20:07;18.33;;;7.90;;
31732;SDS011;18312;51.486;7.144;2022-11-13T03:22:34;14.60;;;7.13;;
31732;SDS011;18312;51.486;7.144;2022-11-13T03:25:01;15.90;;;7.70;;
31732;SDS011;18312;51.486;7.144;2022-11-13T03:27:29;15.63;;;7.28;;
31732;SDS011;18312;51.486;7.144;2022-11-13T03:29:55;11.98;;;7.13;;
31732;SDS011;18312;51.486;7.144;2022-11-13T03:32:22;16.27;;;6.72;;
31732;SDS011;18312;51.486;7.144;2022-11-13T03:34:50;17.10;;;7.53;;
31732;SDS011;18312;51.486;7.144;2022-11-13T03:37:17;13.20;;;6.93;;
31732;SDS011;18312;51.486;7.144;2022-11-13T03:39:43;14.75;;;8.25;;
31732;SDS011;18312;51.486;7.144;2022-11-13T03:42:10;14.77;;;7.13;;
31732;SDS011;18312;51.486;7.144;2022-11-13T03:44:37;12.13;;;6.80;;
31732;SDS011;18312;51.486;7.144;2022-11-13T03:47:04;16.88;;;7.20;;
31732;SDS011;18312;51.486;7.144;2022-11-13T03:49:30;15.43;;;7.60;;
31732;SDS011;18312;51.486;7.144;2022-11-13T03:51:59;13.55;;;6.93;;
31732;SDS011;18312;51.486;7.144;2022-11-13T03:54:27;14.93;;;6.78;;
31732;SDS011;18312;51.486;7.144;2022-11-13T03:56:55;13.20;;;7.00;;
31732;SDS011;18312;51.486;7.144;2022-11-13T03:59:22;12.07;;;6.55;;
31732;SDS011;18312;51.486;7.144;2022-11-13T04:01:48;13.50;;;6.97;;
31732;SDS011;18312;51.486;7.144;2022-11-13T04:04:15;14.18;;;7.07;;
31732;SDS011;18312;51.486;7.144;2022-11-13T04:06:46;12.82;;;7.07;;
31732;SDS011;18312;51.486;7.144;2022-11-13T04:09:14;15.05;;;6.88;;
31732;SDS011;18312;51.486;7.144;2022-11-13T04:11:41;14.32;;;7.38;;
31732;SDS011;18312;51.486;7.144;2022-11-13T04:14:07;15.07;;;7.32;;
31732;SDS011;18312;51.486;7.144;2022-11-13T04:16:34;13.70;;;7.32;;
31732;SDS011;18312;51.486;7.144;2022-11-13T04:19:01;18.80;;;7.70;;
31732;SDS011;18312;51.486;7.144;2022-11-13T04:21:27;14.95;;;7.03;;
31732;SDS011;18312;51.486;7.144;2022-11-13T04:23:54;13.20;;;7.22;;
31732;SDS011;18312;51.486;7.144;2022-11-13T04:26:22;12.43;;;6.63;;
31732;SDS011;18312;51.486;7.144;2022-11-13T04:28:49;12.07;;;8.10;;
31732;SDS011;18312;51.486;7.144;2022-11-13T04:31:16;16.35;;;7.35;;
31732;SDS011;18312;51.486;7.144;2022-11-13T04:33:42;13.45;;;6.82;;
31732;SDS011;18312;51.486;7.144;2022-11-13T04:36:09;11.02;;;6.93;;
31732;SDS011;18312;51.486;7.144;2022-11-13T04:38:36;14.80;;;7.43;;
31732;SDS011;18312;51.486;7.144;2022-11-13T04:41:03;12.68;;;6.97;;
31732;SDS011;18312;51.486;7.144;2022-11-13T04:43:49;16.63;;;7.68;;
31732;SDS011;18312;51.486;7.144;2022-11-13T04:46:15;16.95;;;7.93;;
31732;SDS011;18312;51.486;7.144;2022-11-13T04:48:42;13.23;;;7.10;;
31732;SDS011;18312;51.486;7.144;2022-11-13T04:51:09;13.43;;;7.00;;
31732;SDS011;18312;51.486;7.144;2022-11-13T04:53:35;12.32;;;6.93;;
31732;SDS011;18312;51.486;7.144;2022-11-13T04:56:02;15.27;;;7.40;;
31732;SDS011;18312;51.486;7.144;2022-11-13T05:01:53;18.23;;;7.45;;
31732;SDS011;18312;51.486;7.144;2022-11-13T05:04:21;12.15;;;7.35;;
31732;SDS011;18312;51.486;7.144;2022-11-13T05:06:48;13.13;;;6.75;;
31732;SDS011;18312;51.486;7.144;2022-11-13T05:09:14;15.27;;;7.20;;
31732;SDS011;18312;51.486;7.144;2022-11-13T05:11:41;11.82;;;6.78;;
31732;SDS011;18312;51.486;7.144;2022-11-13T05:14:09;14.60;;;7.15;;
31732;SDS011;18312;51.486;7.144;2022-11-13T05:16:36;15.35;;;7.50;;
31732;SDS011;18312;51.486;7.144;2022-11-13T05:19:11;12.05;;;7.07;;
31732;SDS011;18312;51.486;7.144;2022-11-13T05:21:38;12.93;;;7.30;;
31732;SDS011;18312;51.486;7.144;2022-11-13T05:24:05;11.70;;;6.00;;
31732;SDS011;18312;51.486;7.144;2022-11-13T05:29:02;15.48;;;6.72;;
31732;SDS011;18312;51.486;7.144;2022-11-13T05:31:29;13.65;;;6.78;;
31732;SDS011;18312;51.486;7.144;2022-11-13T05:33:55;12.00;;;6.47;;
31732;SDS011;18312;51.486;7.144;2022-11-13T05:36:23;13.65;;;7.05;;
31732;SDS011;18312;51.486;7.144;2022-11-13T05:38:50;12.25;;;7.38;;
31732;SDS011;18312;51.486;7.144;2022-11-13T05:41:18;12.88;;;7.60;;
31732;SDS011;18312;51.486;7.144;2022-11-13T05:43:45;15.27;;;7.63;;
31732;SDS011;18312;51.486;7.144;2022-11-13T05:46:13;15.65;;;6.82;;
31732;SDS011;18312;51.486;7.144;2022-11-13T05:48:41;13.80;;;7.60;;
31732;SDS011;18312;51.486;7.144;2022-11-13T05:51:10;14.85;;;7.13;;
31732;SDS011;18312;51.486;7.144;2022-11-13T05:53:39;19.25;;;8.60;;
31732;SDS011;18312;51.486;7.144;2022-11-13T05:56:07;18.33;;;8.68;;
31732;SDS011;18312;51.486;7.144;2022-11-13T05:58:38;13.25;;;7.13;;
31732;SDS011;18312;51.486;7.144;2022-11-13T06:03:34;20.10;;;9.73;;
31732;SDS011;18312;51.486;7.144;2022-11-13T06:06:01;19.33;;;10.02;;
31732;SDS011;18312;51.486;7.144;2022-11-13T06:08:28;19.10;;;8.82;;
31732;SDS011;18312;51.486;7.144;2022-11-13T06:10:58;17.80;;;8.68;;
31732;SDS011;18312;51.486;7.144;2022-11-13T06:13:26;17.33;;;8.82;;
31732;SDS011;18312;51.486;7.144;2022-11-13T06:15:53;16.90;;;8.75;;
31732;SDS011;18312;51.486;7.144;2022-11-13T06:18:24;15.82;;;9.20;;
31732;SDS011;18312;51.486;7.144;2022-11-13T06:20:51;19.50;;;9.65;;
31732;SDS011;18312;51.486;7.144;2022-11-13T06:23:18;19.67;;;10.45;;
31732;SDS011;18312;51.486;7.144;2022-11-13T06:25:45;19.77;;;10.18;;
31732;SDS011;18312;51.486;7.144;2022-11-13T06:28:13;17.27;;;10.23;;
31732;SDS011;18312;51.486;7.144;2022-11-13T06:30:41;16.52;;;9.68;;
31732;SDS011;18312;51.486;7.144;2022-11-13T06:33:08;24.52;;;11.05;;
31732;SDS011;18312;51.486;7.144;2022-11-13T06:35:35;25.20;;;9.57;;
31732;SDS011;18312;51.486;7.144;2022-11-13T06:38:07;25.05;;;11.32;;
31732;SDS011;18312;51.486;7.144;2022-11-13T06:40:36;28.67;;;12.13;;
31732;SDS011;18312;51.486;7.144;2022-11-13T06:43:03;30.50;;;13.13;;
31732;SDS011;18312;51.486;7.144;2022-11-13T06:45:31;23.83;;;12.15;;
31732;SDS011;18312;51.486;7.144;2022-11-13T06:48:11;26.08;;;12.32;;
31732;SDS011;18312;51.486;7.144;2022-11-13T06:50:38;22.45;;;11.88;;
31732;SDS011;18312;51.486;7.144;2022-11-13T06:53:05;20.52;;;10.45;;
31732;SDS011;18312;51.486;7.144;2022-11-13T06:55:32;24.10;;;11.52;;
31732;SDS011;18312;51.486;7.144;2022-11-13T06:57:59;22.38;;;10.85;;
31732;SDS011;18312;51.486;7.144;2022-11-13T07:00:26;21.42;;;10.93;;
31732;SDS011;18312;51.486;7.144;2022-11-13T07:02:54;21.25;;;10.98;;
31732;SDS011;18312;51.486;7.144;2022-11-13T07:05:20;26.85;;;12.32;;
31732;SDS011;18312;51.486;7.144;2022-11-13T07:07:47;24.70;;;11.55;;
31732;SDS011;18312;51.486;7.144;2022-11-13T07:10:14;25.77;;;13.30;;
31732;SDS011;18312;51.486;7.144;2022-11-13T07:12:41;29.77;;;12.90;;
31732;SDS011;18312;51.486;7.144;2022-11-13T07:15:08;32.45;;;12.75;;
31732;SDS011;18312;51.486;7.144;2022-11-13T07:17:35;26.10;;;13.50;;
31732;SDS011;18312;51.486;7.144;2022-11-13T07:20:03;30.63;;;11.85;;
31732;SDS011;18312;51.486;7.144;2022-11-13T07:22:30;26.98;;;14.05;;
31732;SDS011;18312;51.486;7.144;2022-11-13T07:24:57;25.58;;;12.98;;
31732;SDS011;18312;51.486;7.144;2022-11-13T07:27:24;24.95;;;13.80;;
31732;SDS011;18312;51.486;7.144;2022-11-13T07:29:50;23.83;;;13.40;;
31732;SDS011;18312;51.486;7.144;2022-11-13T07:32:17;24.13;;;12.13;;
31732;SDS011;18312;51.486;7.144;2022-11-13T07:34:44;25.38;;;13.60;;
31732;SDS011;18312;51.486;7.144;2022-11-13T07:37:12;31.67;;;13.07;;
31732;SDS011;18312;51.486;7.144;2022-11-13T07:39:38;30.48;;;13.63;;
31732;SDS011;18312;51.486;7.144;2022-11-13T07:42:05;25.77;;;12.82;;
31732;SDS011;18312;51.486;7.144;2022-11-13T07:44:32;25.90;;;13.30;;
31732;SDS011;18312;51.486;7.144;2022-11-13T07:46:59;21.88;;;11.95;;
31732;SDS011;18312;51.486;7.144;2022-11-13T07:49:26;24.52;;;12.43;;
31732;SDS011;18312;51.486;7.144;2022-11-13T07:51:52;25.10;;;12.93;;
31732;SDS011;18312;51.486;7.144;2022-11-13T07:54:21;25.73;;;13.50;;
31732;SDS011;18312;51.486;7.144;2022-11-13T07:56:47;26.45;;;12.57;;
31732;SDS011;18312;51.486;7.144;2022-11-13T07:59:14;26.75;;;12.35;;
31732;SDS011;18312;51.486;7.144;2022-11-13T08:01:41;27.00;;;13.38;;
31732;SDS011;18312;51.486;7.144;2022-11-13T08:04:07;24.83;;;13.45;;
31732;SDS011;18312;51.486;7.144;2022-11-13T08:06:35;31.10;;;13.70;;
31732;SDS011;18312;51.486;7.144;2022-11-13T08:09:02;29.27;;;14.15;;
31732;SDS011;18312;51.486;7.144;2022-11-13T08:11:30;25.38;;;11.98;;
31732;SDS011;18312;51.486;7.144;2022-11-13T08:13:57;26.80;;;13.57;;
31732;SDS011;18312;51.486;7.144;2022-11-13T08:16:23;22.48;;;12.77;;
31732;SDS011;18312;51.486;7.144;2022-11-13T08:18:50;21.95;;;12.45;;
31732;SDS011;18312;51.486;7.144;2022-11-13T08:21:17;20.33;;;12.07;;
31732;SDS011;18312;51.486;7.144;2022-11-13T08:23:45;22.00;;;11.68;;
31732;SDS011;18312;51.486;7.144;2022-11-13T08:26:14;21.97;;;13.47;;
31732;SDS011;18312;51.486;7.144;2022-11-13T08:28:43;26.50;;;14.32;;
31732;SDS011;18312;51.486;7.144;2022-11-13T08:31:11;24.58;;;12.32;;
31732;SDS011;18312;51.486;7.144;2022-11-13T08:33:39;29.90;;;13.68;;
31732;SDS011;18312;51.486;7.144;2022-11-13T08:36:08;26.17;;;13.60;;
31732;SDS011;18312;51.486;7.144;2022-11-13T08:38:35;26.00;;;13.45;;
31732;SDS011;18312;51.486;7.144;2022-11-13T08:41:03;24.30;;;13.35;;
31732;SDS011;18312;51.486;7.144;2022-11-13T08:43:31;25.73;;;13.23;;
31732;SDS011;18312;51.486;7.144;2022-11-13T08:45:59;26.52;;;13.48;;
31732;SDS011;18312;51.486;7.144;2022-11-13T08:48:26;26.17;;;12.93;;
31732;SDS011;18312;51.486;7.144;2022-11-13T08:50:53;28.35;;;12.18;;
31732;SDS011;18312;51.486;7.144;2022-11-13T08:53:21;24.17;;;12.85;;
31732;SDS011;18312;51.486;7.144;2022-11-13T08:55:49;28.83;;;11.70;;
31732;SDS011;18312;51.486;7.144;2022-11-13T08:58:16;20.85;;;10.88;;
31732;SDS011;18312;51.486;7.144;2022-11-13T09:00:43;17.42;;;10.30;;
31732;SDS011;18312;51.486;7.144;2022-11-13T09:03:11;18.50;;;9.90;;
31732;SDS011;18312;51.486;7.144;2022-11-13T09:05:38;17.17;;;8.73;;
31732;SDS011;18312;51.486;7.144;2022-11-13T09:08:05;16.90;;;9.10;;
31732;SDS011;18312;51.486;7.144;2022-11-13T09:10:31;17.40;;;9.00;;
31732;SDS011;18312;51.486;7.144;2022-11-13T09:12:59;12.25;;;7.85;;
31732;SDS011;18312;51.486;7.144;2022-11-13T09:15:27;14.35;;;9.00;;
31732;SDS011;18312;51.486;7.144;2022-11-13T09:17:55;18.25;;;9.60;;
31732;SDS011;18312;51.486;7.144;2022-11-13T09:20:24;15.75;;;7.28;;
31732;SDS011;18312;51.486;7.144;2022-11-13T09:22:57;19.33;;;7.45;;
31732;SDS011;18312;51.486;7.144;2022-11-13T09:25:24;14.82;;;7.97;;
31732;SDS011;18312;51.486;7.144;2022-11-13T09:27:51;19.42;;;7.85;;
31732;SDS011;18312;51.486;7.144;2022-11-13T09:30:20;16.55;;;7.43;;
31732;SDS011;18312;51.486;7.144;2022-11-13T09:32:46;13.65;;;7.43;;
31732;SDS011;18312;51.486;7.144;2022-11-13T09:35:13;15.38;;;7.40;;
31732;SDS011;18312;51.486;7.144;2022-11-13T09:37:41;15.15;;;8.43;;
31732;SDS011;18312;51.486;7.144;2022-11-13T09:40:10;16.17;;;7.35;;
31732;SDS011;18312;51.486;7.144;2022-11-13T09:42:47;16.77;;;7.32;;
31732;SDS011;18312;51.486;7.144;2022-11-13T09:45:14;10.93;;;5.80;;
31732;SDS011;18312;51.486;7.144;2022-11-13T09:47:43;11.40;;;6.93;;
31732;SDS011;18312;51.486;7.144;2022-11-13T09:50:12;11.53;;;6.73;;
31732;SDS011;18312;51.486;7.144;2022-11-13T09:52:45;10.60;;;5.70;;
31732;SDS011;18312;51.486;7.144;2022-11-13T09:55:14;13.13;;;6.45;;
31732;SDS011;18312;51.486;7.144;2022-11-13T09:57:45;10.20;;;6.28;;
31732;SDS011;18312;51.486;7.144;2022-11-13T10:00:18;12.38;;;6.35;;
31732;SDS011;18312;51.486;7.144;2022-11-13T10:02:49;12.30;;;6.88;;
31732;SDS011;18312;51.486;7.144;2022-11-13T10:05:22;10.20;;;6.28;;
31732;SDS011;18312;51.486;7.144;2022-11-13T10:07:55;11.45;;;6.20;;
31732;SDS011;18312;51.486;7.144;2022-11-13T10:10:37;15.75;;;6.88;;
31732;SDS011;18312;51.486;7.144;2022-11-13T10:13:14;13.75;;;6.85;;
31732;SDS011;18312;51.486;7.144;2022-11-13T10:15:47;11.25;;;6.78;;
31732;SDS011;18312;51.486;7.144;2022-11-13T10:18:18;10.95;;;6.35;;
31732;SDS011;18312;51.486;7.144;2022-11-13T10:20:48;13.85;;;7.00;;
31732;SDS011;18312;51.486;7.144;2022-11-13T10:23:20;11.40;;;6.10;;
31732;SDS011;18312;51.486;7.144;2022-11-13T10:25:49;10.55;;;6.43;;
31732;SDS011;18312;51.486;7.144;2022-11-13T10:28:17;12.25;;;6.78;;
31732;SDS011;18312;51.486;7.144;2022-11-13T10:30:46;10.40;;;6.47;;
31732;SDS011;18312;51.486;7.144;2022-11-13T10:33:15;9.80;;;5.60;;
31732;SDS011;18312;51.486;7.144;2022-11-13T10:35:45;9.57;;;6.28;;
31732;SDS011;18312;51.486;7.144;2022-11-13T10:38:22;10.68;;;6.38;;
31732;SDS011;18312;51.486;7.144;2022-11-13T10:40:51;12.77;;;6.05;;
31732;SDS011;18312;51.486;7.144;2022-11-13T10:43:30;10.70;;;6.90;;
31732;SDS011;18312;51.486;7.144;2022-11-13T10:45:57;11.80;;;5.90;;
31732;SDS011;18312;51.486;7.144;2022-11-13T10:48:26;16.13;;;6.72;;
31732;SDS011;18312;51.486;7.144;2022-11-13T10:50:55;8.93;;;5.82;;
31732;SDS011;18312;51.486;7.144;2022-11-13T10:53:25;9.50;;;5.67;;
31732;SDS011;18312;51.486;7.144;2022-11-13T10:56:10;9.73;;;5.20;;
31732;SDS011;18312;51.486;7.144;2022-11-13T10:58:39;10.10;;;5.70;;
31732;SDS011;18312;51.486;7.144;2022-11-13T11:01:12;9.85;;;5.25;;
31732;SDS011;18312;51.486;7.144;2022-11-13T11:03:47;15.70;;;5.63;;
31732;SDS011;18312;51.486;7.144;2022-11-13T11:06:13;9.02;;;5.53;;
31732;SDS011;18312;51.486;7.144;2022-11-13T11:08:42;10.25;;;6.03;;
31732;SDS011;18312;51.486;7.144;2022-11-13T11:11:15;10.15;;;6.68;;
31732;SDS011;18312;51.486;7.144;2022-11-13T11:14:04;14.25;;;6.80;;
31732;SDS011;18312;51.486;7.144;2022-11-13T11:16:41;13.27;;;6.90;;
31732;SDS011;18312;51.486;7.144;2022-11-13T11:19:10;14.60;;;6.97;;
31732;SDS011;18312;51.486;7.144;2022-11-13T11:21:40;13.63;;;6.78;;
31732;SDS011;18312;51.486;7.144;2022-11-13T11:24:10;14.20;;;6.95;;
31732;SDS011;18312;51.486;7.144;2022-11-13T11:26:43;14.68;;;6.82;;
31732;SDS011;18312;51.486;7.144;2022-11-13T11:29:15;10.73;;;7.55;;
31732;SDS011;18312;51.486;7.144;2022-11-13T11:31:49;11.68;;;7.10;;
31732;SDS011;18312;51.486;7.144;2022-11-13T11:34:19;16.38;;;7.00;;
31732;SDS011;18312;51.486;7.144;2022-11-13T11:36:53;13.25;;;6.40;;
31732;SDS011;18312;51.486;7.144;2022-11-13T11:39:27;12.48;;;6.75;;
31732;SDS011;18312;51.486;7.144;2022-11-13T11:42:02;9.85;;;5.93;;
31732;SDS011;18312;51.486;7.144;2022-11-13T11:44:37;9.88;;;5.85;;
31732;SDS011;18312;51.486;7.144;2022-11-13T11:47:13;10.88;;;5.63;;
31732;SDS011;18312;51.486;7.144;2022-11-13T11:49:41;6.68;;;5.22;;
31732;SDS011;18312;51.486;7.144;2022-11-13T11:52:12;9.75;;;5.65;;
31732;SDS011;18312;51.486;7.144;2022-11-13T11:54:56;11.45;;;5.40;;
31732;SDS011;18312;51.486;7.144;2022-11-13T11:57:35;12.23;;;5.32;;
31732;SDS011;18312;51.486;7.144;2022-11-13T12:00:09;8.02;;;5.03;;
31732;SDS011;18312;51.486;7.144;2022-11-13T12:02:51;11.30;;;4.80;;
31732;SDS011;18312;51.486;7.144;2022-11-13T12:05:39;11.70;;;5.25;;
31732;SDS011;18312;51.486;7.144;2022-11-13T12:08:14;10.15;;;5.30;;
31732;SDS011;18312;51.486;7.144;2022-11-13T12:13:25;6.43;;;3.83;;
31732;SDS011;18312;51.486;7.144;2022-11-13T12:15:55;6.75;;;4.45;;
31732;SDS011;18312;51.486;7.144;2022-11-13T12:18:30;9.77;;;4.93;;
31732;SDS011;18312;51.486;7.144;2022-11-13T12:21:10;13.95;;;5.45;;
31732;SDS011;18312;51.486;7.144;2022-11-13T12:24:04;8.38;;;5.25;;
31732;SDS011;18312;51.486;7.144;2022-11-13T12:26:43;7.63;;;4.78;;
31732;SDS011;18312;51.486;7.144;2022-11-13T12:29:20;11.07;;;4.43;;
31732;SDS011;18312;51.486;7.144;2022-11-13T12:32:07;6.90;;;4.70;;
31732;SDS011;18312;51.486;7.144;2022-11-13T12:34:42;9.95;;;5.10;;
31732;SDS011;18312;51.486;7.144;2022-11-13T12:37:13;10.07;;;3.97;;
31732;SDS011;18312;51.486;7.144;2022-11-13T12:39:46;10.52;;;4.75;;
31732;SDS011;18312;51.486;7.144;2022-11-13T12:42:21;9.82;;;4.88;;
31732;SDS011;18312;51.486;7.144;2022-11-13T12:44:58;11.20;;;4.68;;
31732;SDS011;18312;51.486;7.144;2022-11-13T12:47:32;9.02;;;5.57;;
31732;SDS011;18312;51.486;7.144;2022-11-13T12:50:00;9.38;;;5.18;;
31732;SDS011;18312;51.486;7.144;2022-11-13T12:55:03;13.63;;;5.28;;
31732;SDS011;18312;51.486;7.144;2022-11-13T12:57:34;9.18;;;5.35;;
31732;SDS011;18312;51.486;7.144;2022-11-13T13:00:21;7.13;;;4.63;;
31732;SDS011;18312;51.486;7.144;2022-11-13T13:03:01;10.60;;;5.22;;
31732;SDS011;18312;51.486;7.144;2022-11-13T13:11:14;12.45;;;6.18;;
31732;SDS011;18312;51.486;7.144;2022-11-13T13:13:48;11.73;;;6.15;;
31732;SDS011;18312;51.486;7.144;2022-11-13T13:16:19;13.77;;;6.82;;
31732;SDS011;18312;51.486;7.144;2022-11-13T13:18:49;9.90;;;6.05;;
31732;SDS011;18312;51.486;7.144;2022-11-13T13:21:17;9.35;;;6.00;;
31732;SDS011;18312;51.486;7.144;2022-11-13T13:23:46;9.23;;;5.63;;
31732;SDS011;18312;51.486;7.144;2022-11-13T13:26:15;5.72;;;4.80;;
31732;SDS011;18312;51.486;7.144;2022-11-13T13:28:47;8.98;;;4.80;;
31732;SDS011;18312;51.486;7.144;2022-11-13T13:31:19;14.32;;;4.85;;
31732;SDS011;18312;51.486;7.144;2022-11-13T13:33:55;6.90;;;4.88;;
31732;SDS011;18312;51.486;7.144;2022-11-13T13:36:34;5.57;;;4.28;;
31732;SDS011;18312;51.486;7.144;2022-11-13T13:39:07;5.70;;;4.38;;
31732;SDS011;18312;51.486;7.144;2022-11-13T13:41:57;8.15;;;4.82;;
31732;SDS011;18312;51.486;7.144;2022-11-13T13:44:49;8.60;;;5.63;;
31732;SDS011;18312;51.486;7.144;2022-11-13T13:47:24;10.57;;;5.90;;
31732;SDS011;18312;51.486;7.144;2022-11-13T13:49:55;10.93;;;6.03;;
31732;SDS011;18312;51.486;7.144;2022-11-13T13:52:24;11.27;;;6.32;;
31732;SDS011;18312;51.486;7.144;2022-11-13T13:54:54;9.88;;;5.93;;
31732;SDS011;18312;51.486;7.144;2022-11-13T13:57:22;10.02;;;5.82;;
31732;SDS011;18312;51.486;7.144;2022-11-13T13:59:50;11.00;;;6.47;;
31732;SDS011;18312;51.486;7.144;2022-11-13T14:02:18;9.55;;;6.00;;
31732;SDS011;18312;51.486;7.144;2022-11-13T14:04:47;10.55;;;7.13;;
31732;SDS011;18312;51.486;7.144;2022-11-13T14:07:20;8.82;;;6.13;;
31732;SDS011;18312;51.486;7.144;2022-11-13T14:09:49;9.70;;;6.28;;
31732;SDS011;18312;51.486;7.144;2022-11-13T14:12:29;10.68;;;5.90;;
31732;SDS011;18312;51.486;7.144;2022-11-13T14:14:58;9.20;;;5.78;;
31732;SDS011;18312;51.486;7.144;2022-11-13T14:17:24;10.25;;;5.80;;
31732;SDS011;18312;51.486;7.144;2022-11-13T14:19:53;9.40;;;5.38;;
31732;SDS011;18312;51.486;7.144;2022-11-13T14:22:24;12.63;;;5.40;;
31732;SDS011;18312;51.486;7.144;2022-11-13T14:24:52;16.27;;;7.20;;
31732;SDS011;18312;51.486;7.144;2022-11-13T14:27:22;24.25;;;7.88;;
31732;SDS011;18312;51.486;7.144;2022-11-13T14:29:51;21.42;;;7.38;;
31732;SDS011;18312;51.486;7.144;2022-11-13T14:34:50;14.48;;;5.88;;
31732;SDS011;18312;51.486;7.144;2022-11-13T14:37:22;17.35;;;6.70;;
31732;SDS011;18312;51.486;7.144;2022-11-13T14:39:50;11.32;;;5.95;;
31732;SDS011;18312;51.486;7.144;2022-11-13T14:42:20;10.45;;;5.72;;
31732;SDS011;18312;51.486;7.144;2022-11-13T14:44:51;6.38;;;4.00;;
31732;SDS011;18312;51.486;7.144;2022-11-13T14:47:24;10.10;;;4.55;;
31732;SDS011;18312;51.486;7.144;2022-11-13T14:49:52;9.73;;;5.35;;
31732;SDS011;18312;51.486;7.144;2022-11-13T14:52:19;6.78;;;4.53;;
31732;SDS011;18312;51.486;7.144;2022-11-13T14:54:47;10.02;;;4.50;;
31732;SDS011;18312;51.486;7.144;2022-11-13T14:57:14;10.07;;;5.03;;
31732;SDS011;18312;51.486;7.144;2022-11-13T14:59:41;9.10;;;4.60;;
31732;SDS011;18312;51.486;7.144;2022-11-13T15:02:09;7.53;;;4.13;;
31732;SDS011;18312;51.486;7.144;2022-11-13T15:04:38;5.85;;;3.75;;
31732;SDS011;18312;51.486;7.144;2022-11-13T15:07:17;5.88;;;3.45;;
31732;SDS011;18312;51.486;7.144;2022-11-13T15:09:49;5.97;;;3.10;;